Time;durP1;ratioP1;P1;durP2;ratioP2;P2;SDS_P1;SDS_P2;PMS_P1;PMS_P2;Temp;Humidity;BMP_temperature;BMP_pressure;BME280_temperature;BME280_humidity;BME280_pressure;Samples;Min_cycle;Max_cycle;Signal;HPM_P1;HPM_P2
2022/11/05 00:16:42;;;;;;;;;48.25;38.75;;;;;15.57;74.10;100744.16;146621;590;46012;-83
2022/11/05 00:17:55;;;;;;;;;41.50;34.75;;;;;15.35;74.87;100741.72;146622;612;46020;-80
2022/11/05 00:20:51;;;;;;;;;39.50;33.00;;;;;15.24;74.34;100747.47;146618;590;46013;-79
2022/11/05 00:26:56;;;;;;;;;37.00;32.25;;;;;15.13;74.51;100746.22;146618;628;46016;-79
2022/11/05 00:29:53;;;;;;;;;36.25;30.00;;;;;15.10;74.40;100735.69;146619;579;46020;-80
2022/11/05 00:33:04;;;;;;;;;37.25;32.25;;;;;15.05;74.03;100742.50;146619;606;46016;-80
2022/11/05 00:36:06;;;;;;;;;35.50;31.50;;;;;14.99;73.82;100740.56;146622;570;46010;-82
2022/11/05 00:38:58;;;;;;;;;37.00;31.75;;;;;14.98;74.29;100733.56;146617;701;46016;-80
2022/11/05 00:45:13;;;;;;;;;59.25;45.50;;;;;14.87;73.08;100728.81;146618;563;46016;-79
2022/11/05 00:51:30;;;;;;;;;46.50;35.75;;;;;14.68;74.33;100736.03;146619;631;46019;-81
2022/11/05 00:54:34;;;;;;;;;35.50;31.00;;;;;14.57;75.65;100726.91;146618;599;47020;-83
2022/11/05 00:57:26;;;;;;;;;32.75;30.25;;;;;14.49;75.69;100716.19;146621;581;45016;-81
2022/11/05 01:00:22;;;;;;;;;32.00;27.25;;;;;14.41;74.75;100715.03;146621;593;46010;-82
2022/11/05 01:03:32;;;;;;;;;29.25;27.75;;;;;13.17;73.29;100509.81;146617;583;46013;-81
2022/11/05 01:06:50;;;;;;;;;28.25;25.00;;;;;14.37;73.12;100707.03;146613;613;46020;-77
2022/11/05 01:09:48;;;;;;;;;24.75;21.75;;;;;14.40;74.32;100709.75;146629;627;47010;-76
2022/11/05 01:12:55;;;;;;;;;26.00;24.75;;;;;14.37;74.23;100707.03;146616;598;46010;-77
2022/11/05 01:16:16;;;;;;;;;33.00;29.00;;;;;14.35;74.91;100700.88;146612;715;46014;-77
2022/11/05 01:19:13;;;;;;;;;32.00;28.75;;;;;14.34;74.34;100694.78;146615;612;46021;-77
2022/11/05 01:22:15;;;;;;;;;26.75;23.50;;;;;14.33;73.64;100686.06;146612;612;46016;-77
2022/11/05 01:25:13;;;;;;;;;32.25;25.75;;;;;14.38;74.03;100694.03;146614;602;46021;-77
2022/11/05 01:28:24;;;;;;;;;29.50;28.25;;;;;14.39;73.75;100697.53;146609;569;46917;-77
2022/11/05 01:31:28;;;;;;;;;36.75;28.25;;;;;14.51;74.27;100703.22;146617;654;46010;-78
2022/11/05 01:34:26;;;;;;;;;28.25;27.00;;;;;14.59;74.05;100698.28;146612;600;46014;-77
2022/11/05 01:37:31;;;;;;;;;;;;;;;;;;;;;
2022/11/05 01:40:35;;;;;;;;;35.00;29.75;;;;;14.51;74.03;100705.81;146609;593;46915;-74
2022/11/05 01:44:04;;;;;;;;;37.25;30.00;;;;;14.44;72.66;100695.97;146614;703;46010;-75
2022/11/05 01:46:56;;;;;;;;;38.00;29.50;;;;;14.47;73.54;100701.31;146613;699;46012;-77
2022/11/05 01:49:56;;;;;;;;;36.50;30.25;;;;;14.49;74.68;100690.09;146615;604;46010;-78
2022/11/05 01:53:12;;;;;;;;;37.00;30.75;;;;;14.44;74.46;100688.16;146610;608;46012;-73
2022/11/05 01:56:23;;;;;;;;;37.50;32.00;;;;;14.38;74.30;100693.16;146614;598;46010;-76
2022/11/05 01:59:29;;;;;;;;;38.75;32.25;;;;;14.35;75.49;100685.22;146611;574;46012;-75
2022/11/05 02:02:31;;;;;;;;;;;;;;;;;;;;;
2022/11/05 02:05:34;;;;;;;;;32.50;29.00;;;;;14.27;75.99;100685.84;146614;575;46012;-76
2022/11/05 02:09:02;;;;;;;;;35.50;30.25;;;;;14.23;76.13;100680.47;146613;570;46010;-76
2022/11/05 02:12:09;;;;;;;;;28.75;26.25;;;;;14.16;74.49;100686.28;146614;585;45019;-76
2022/11/05 02:15:06;;;;;;;;;23.75;21.00;;;;;14.11;73.78;100675.69;146613;591;46010;-76
2022/11/05 02:18:30;;;;;;;;;24.50;23.00;;;;;14.08;72.98;100672.97;146610;683;46013;-78
2022/11/05 02:22:16;;;;;;;;;24.50;20.50;;;;;14.04;72.67;100664.16;146614;595;46020;-80
2022/11/05 02:25:59;;;;;;;;;21.75;17.25;;;;;13.93;71.47;100665.50;146611;564;46014;-78
2022/11/05 02:29:31;;;;;;;;;17.50;15.75;;;;;13.82;70.02;100659.00;146614;595;46020;-85
2022/11/05 02:33:05;;;;;;;;;13.75;10.50;;;;;13.79;69.37;100653.66;146613;642;46012;-84
2022/11/05 02:36:43;;;;;;;;;11.00;11.00;;;;;13.78;68.19;100654.50;146615;652;46020;-85
2022/11/05 02:40:22;;;;;;;;;10.00;8.00;;;;;13.83;67.15;100648.62;146615;564;46012;-85
2022/11/05 02:43:46;;;;;;;;;12.00;9.75;;;;;13.96;66.70;100639.53;146633;668;45022;-83
2022/11/05 02:47:20;;;;;;;;;8.50;8.25;;;;;14.01;65.72;100657.94;146620;572;46012;-82
2022/11/05 02:51:13;;;;;;;;;13.00;9.00;;;;;13.93;66.11;100672.44;146625;584;45020;-84
2022/11/05 02:54:55;;;;;;;;;;;;;;;;;;;;;
2022/11/05 02:57:52;;;;;;;;;14.00;13.50;;;;;13.86;65.95;100679.09;146624;588;45020;-87
2022/11/05 03:00:59;;;;;;;;;13.00;11.25;;;;;13.79;66.43;100675.38;146611;579;46016;-85
2022/11/05 03:04:35;;;;;;;;;14.50;10.00;;;;;13.68;67.22;100676.72;146615;570;46010;-85
2022/11/05 03:07:53;;;;;;;;;17.00;14.75;;;;;13.41;67.61;100660.91;146629;579;46014;-86
2022/11/05 03:11:17;;;;;;;;;13.25;12.50;;;;;13.38;67.85;100672.09;146634;570;45021;-82
2022/11/05 03:14:53;;;;;;;;;15.00;13.25;;;;;13.24;67.79;100648.91;146631;629;46916;-83
2022/11/05 03:18:25;;;;;;;;;11.50;11.50;;;;;13.31;67.89;100670.09;146632;585;45021;-82
2022/11/05 03:21:41;;;;;;;;;25.50;20.00;;;;;13.34;69.68;100664.13;146633;594;45012;-82
2022/11/05 03:24:46;;;;;;;;;25.25;20.50;;;;;13.28;70.56;100662.16;146635;669;45021;-80
2022/11/05 03:27:51;;;;;;;;;21.75;21.25;;;;;13.25;70.98;100659.44;146633;569;45915;-81
2022/11/05 03:30:56;;;;;;;;;23.25;19.75;;;;;13.23;70.35;100655.84;146633;565;45020;-80
2022/11/05 03:34:07;;;;;;;;;18.50;17.25;;;;;13.24;69.60;100654.13;146635;610;45012;-74
2022/11/05 03:37:07;;;;;;;;;18.75;17.00;;;;;13.29;69.78;100660.44;146635;584;45010;-84
2022/11/05 03:40:06;;;;;;;;;18.50;16.50;;;;;13.40;69.33;100653.94;146620;660;46017;-83
2022/11/05 03:43:06;;;;;;;;;13.75;13.50;;;;;13.48;68.34;100659.44;146637;570;45020;-83
2022/11/05 03:46:12;;;;;;;;;16.25;15.75;;;;;13.56;67.46;100655.41;146630;648;45916;-83
2022/11/05 03:49:12;;;;;;;;;16.00;13.50;;;;;13.60;66.47;100652.09;146636;628;45020;-82
2022/11/05 03:52:38;;;;;;;;;18.75;15.00;;;;;13.53;65.45;100657.91;146633;563;45010;-80
2022/11/05 03:55:44;;;;;;;;;21.00;20.00;;;;;13.43;65.91;100658.34;146634;633;45020;-86
2022/11/05 03:58:59;;;;;;;;;19.00;16.25;;;;;13.35;66.61;100651.16;146636;690;44916;-87
2022/11/05 04:02:06;;;;;;;;;;;;;;;;;;;;;
2022/11/05 04:05:07;;;;;;;;;22.25;19.00;;;;;13.32;67.78;100652.75;146629;570;45016;-83
2022/11/05 04:14:46;;;;;;;;;19.25;16.00;;;;;13.47;67.68;100662.88;146618;570;46020;-76
2022/11/05 04:17:39;;;;;;;;;17.00;16.00;;;;;13.47;67.55;100668.09;146617;613;45017;-80
2022/11/05 04:26:56;;;;;;;;;19.75;16.25;;;;;13.10;68.07;100682.22;146616;597;46010;-77
2022/11/05 04:33:26;;;;;;;;;17.50;16.25;;;;;12.91;69.10;100672.78;146616;599;45045;-82
2022/11/05 04:36:21;;;;;;;;;20.50;14.75;;;;;12.82;69.55;100665.47;146617;574;46012;-83
2022/11/05 04:39:18;;;;;;;;;20.50;18.25;;;;;12.74;70.43;100668.59;146616;605;46010;-86
2022/11/05 04:42:13;;;;;;;;;17.50;15.75;;;;;12.63;71.23;100657.75;146615;586;46012;-83
2022/11/05 04:45:16;;;;;;;;;25.25;22.75;;;;;12.55;71.36;100653.91;146619;567;46010;-82
2022/11/05 04:48:18;;;;;;;;;21.00;18.75;;;;;12.51;71.66;100654.63;146616;627;45915;-81
2022/11/05 04:51:13;;;;;;;;;25.00;20.50;;;;;12.51;72.54;100647.72;146617;573;46020;-79
2022/11/05 04:54:21;;;;;;;;;22.25;19.50;;;;;12.37;72.13;100628.06;146614;605;46012;-87
2022/11/05 04:57:22;;;;;;;;;22.00;20.50;;;;;12.51;73.76;100657.22;146617;595;45020;-86
2022/11/05 05:00:20;;;;;;;;;22.75;18.25;;;;;12.52;74.12;100657.28;146612;577;46014;-79
2022/11/05 05:03:23;;;;;;;;;;;;;;;;;;;;;
2022/11/05 05:06:20;;;;;;;;;20.00;16.00;;;;;12.52;72.75;100662.47;146614;579;46016;-80
2022/11/05 05:09:17;;;;;;;;;20.00;19.00;;;;;12.53;72.52;100661.69;146620;597;46021;-76
2022/11/05 05:12:21;;;;;;;;;25.25;20.25;;;;;12.60;72.03;100670.63;146614;577;46016;-77
2022/11/05 05:15:28;;;;;;;;;16.75;15.50;;;;;12.73;71.37;100674.63;146616;706;48010;-76
2022/11/05 05:18:26;;;;;;;;;15.75;15.25;;;;;12.87;70.45;100671.78;146614;657;46012;-76
2022/11/05 05:21:37;;;;;;;;;23.25;18.25;;;;;12.97;69.67;100670.44;146617;617;46020;-78
2022/11/05 05:24:32;;;;;;;;;19.50;15.00;;;;;13.02;69.16;100678.41;146617;580;45017;-78
2022/11/05 05:27:35;;;;;;;;;20.50;19.00;;;;;13.07;69.03;100679.50;146618;575;46020;-77
2022/11/05 05:30:31;;;;;;;;;18.75;18.00;;;;;13.12;67.85;100672.78;146616;566;46017;-76
2022/11/05 05:33:25;;;;;;;;;16.25;13.50;;;;;13.13;67.28;100683.22;146613;611;46020;-74
2022/11/05 05:36:26;;;;;;;;;13.50;13.00;;;;;13.12;67.30;100685.78;146622;566;46013;-76
2022/11/05 05:39:27;;;;;;;;;12.00;12.00;;;;;13.35;67.59;100685.00;146615;598;47020;-77
2022/11/05 05:42:21;;;;;;;;;15.25;15.25;;;;;13.68;66.12;100684.53;146616;638;46916;-76
2022/11/05 05:45:15;;;;;;;;;17.00;15.00;;;;;14.01;66.37;100689.22;146615;615;47010;-77
2022/11/05 05:48:21;;;;;;;;;19.00;15.00;;;;;14.47;65.06;100686.53;146615;569;46016;-77
2022/11/05 05:51:34;;;;;;;;;21.00;17.50;;;;;15.23;63.84;100687.34;146618;586;46020;-80
2022/11/05 05:54:36;;;;;;;;;21.00;16.50;;;;;16.26;61.45;100687.78;146614;588;46016;-80
2022/11/05 05:57:32;;;;;;;;;23.25;17.00;;;;;17.26;61.10;100686.03;146617;633;46010;-81
2022/11/05 06:00:28;;;;;;;;;18.00;15.50;;;;;18.22;60.01;100682.00;146612;565;46017;-83
2022/11/05 06:03:20;;;;;;;;;17.75;15.50;;;;;19.21;58.62;100682.88;146613;573;46010;-82
2022/11/05 06:06:22;;;;;;;;;20.50;17.25;;;;;20.16;55.41;100678.94;146617;730;46016;-81
2022/11/05 06:09:15;;;;;;;;;19.75;18.00;;;;;21.02;53.12;100689.44;146621;603;47020;-82
2022/11/05 06:12:22;;;;;;;;;18.75;17.00;;;;;21.84;52.70;100691.78;146619;670;46016;-81
2022/11/05 06:15:22;;;;;;;;;18.75;15.00;;;;;22.44;50.52;100681.44;146624;587;46021;-77
2022/11/05 06:18:14;;;;;;;;;17.75;12.25;;;;;23.07;47.69;100687.66;146620;625;46012;-79
2022/11/05 06:21:15;;;;;;;;;16.50;14.75;;;;;23.55;47.56;100696.44;146624;655;46020;-79
2022/11/05 06:24:09;;;;;;;;;16.75;16.75;;;;;23.88;47.29;100690.16;146619;669;46012;-83
2022/11/05 06:27:10;;;;;;;;;20.75;18.75;;;;;24.27;47.54;100701.50;146624;638;46020;-78
2022/11/05 06:30:03;;;;;;;;;22.75;18.75;;;;;24.62;45.70;100697.78;146618;578;46013;-80
2022/11/05 06:32:55;;;;;;;;;19.25;18.50;;;;;24.70;44.21;100701.22;146708;569;45023;-81
2022/11/05 06:35:57;;;;;;;;;25.00;20.50;;;;;24.56;46.18;100689.84;146617;594;46014;-80
2022/11/05 06:39:15;;;;;;;;;24.75;21.75;;;;;23.34;48.11;100521.84;146621;586;46020;-79
2022/11/05 06:42:19;;;;;;;;;26.75;23.50;;;;;24.15;46.54;100699.78;146621;606;46012;-83
2022/11/05 06:45:43;;;;;;;;;27.25;26.00;;;;;23.77;46.73;100694.66;146623;599;46010;-84
2022/11/05 06:48:50;;;;;;;;;27.00;25.00;;;;;23.25;48.22;100686.78;146617;566;45919;-84
2022/11/05 06:51:48;;;;;;;;;25.00;22.75;;;;;22.65;48.93;100701.72;146620;592;46020;-84
2022/11/05 06:54:51;;;;;;;;;29.75;27.75;;;;;22.19;48.34;100702.50;146615;660;46027;-85
2022/11/05 06:57:50;;;;;;;;;27.00;26.75;;;;;21.76;49.88;100694.34;146620;578;46020;-84
2022/11/05 07:00:44;;;;;;;;;29.50;26.25;;;;;21.48;49.14;100695.09;146617;589;46012;-76
2022/11/05 07:03:52;;;;;;;;;;;;;;;;;;;;;
2022/11/05 07:06:47;;;;;;;;;24.25;22.00;;;;;21.21;52.78;100701.87;146615;588;46917;-85
2022/11/05 07:09:44;;;;;;;;;26.00;24.75;;;;;21.18;50.98;100692.22;146621;666;46021;-85
2022/11/05 07:12:42;;;;;;;;;30.00;26.50;;;;;21.16;52.23;100693.97;146619;586;46012;-84
2022/11/05 07:15:42;;;;;;;;;35.50;29.75;;;;;21.22;52.20;100691.37;146621;653;46010;-84
2022/11/05 07:18:44;;;;;;;;;28.50;25.50;;;;;21.19;53.15;100679.91;146614;578;46017;-83
2022/11/05 07:21:54;;;;;;;;;23.50;22.00;;;;;20.22;53.19;100504.38;146622;605;46020;-85
2022/11/05 07:24:48;;;;;;;;;22.75;22.75;;;;;21.36;52.36;100680.06;146615;590;46017;-77
2022/11/05 07:27:54;;;;;;;;;23.00;20.75;;;;;20.35;53.73;100495.69;146619;570;46020;-73
2022/11/05 07:31:06;;;;;;;;;20.75;16.75;;;;;21.58;53.92;100679.31;146611;583;47015;-71
2022/11/05 07:34:10;;;;;;;;;26.00;22.50;;;;;21.66;52.48;100668.81;146613;572;46020;-72
2022/11/05 07:37:10;;;;;;;;;24.75;21.25;;;;;21.72;53.97;100671.47;146608;658;46012;-73
2022/11/05 07:40:11;;;;;;;;;25.25;24.00;;;;;21.87;52.50;100666.28;146608;564;46021;-72
2022/11/05 07:43:10;;;;;;;;;28.00;22.50;;;;;22.01;51.82;100661.03;146608;586;46014;-73
2022/11/05 07:46:09;;;;;;;;;24.50;24.50;;;;;22.14;52.50;100654.03;146608;592;48010;-71
2022/11/05 07:49:15;;;;;;;;;26.75;25.25;;;;;21.40;52.20;100508.66;146606;588;46016;-73
2022/11/05 07:52:12;;;;;;;;;37.00;30.00;;;;;22.28;53.68;100657.63;146612;571;46020;-72
2022/11/05 07:55:07;;;;;;;;;38.00;33.00;;;;;22.26;54.17;100653.22;146608;662;46012;-71
2022/11/05 07:58:17;;;;;;;;;35.50;31.00;;;;;22.20;54.81;100662.00;146612;614;46012;-72
2022/11/05 08:01:31;;;;;;;;;37.25;31.75;;;;;22.14;55.61;100646.09;146605;572;46016;-72
2022/11/05 08:04:33;;;;;;;;;38.00;31.75;;;;;21.10;55.41;100477.72;146611;625;46020;-72
2022/11/05 08:07:35;;;;;;;;;35.50;29.50;;;;;22.23;55.91;100659.38;146606;569;46016;-72
2022/11/05 08:10:30;;;;;;;;;38.25;33.50;;;;;22.32;56.19;100667.31;146610;572;47012;-72
2022/11/05 08:13:24;;;;;;;;;34.50;30.25;;;;;22.40;56.63;100663.78;146605;565;46032;-73
2022/11/05 08:16:21;;;;;;;;;37.75;33.25;;;;;22.41;56.87;100663.81;146609;634;46012;-71
2022/11/05 08:19:27;;;;;;;;;36.00;31.00;;;;;22.40;58.23;100666.44;146608;600;46016;-71
2022/11/05 08:22:25;;;;;;;;;42.00;34.75;;;;;22.37;60.44;100667.34;146613;596;46020;-72
2022/11/05 08:25:24;;;;;;;;;44.50;34.25;;;;;22.35;61.51;100672.59;146607;598;46012;-72
2022/11/05 08:28:21;;;;;;;;;42.50;34.00;;;;;22.35;61.70;100674.37;146612;625;46020;-71
2022/11/05 08:31:22;;;;;;;;;39.25;32.25;;;;;22.38;61.44;100666.44;146606;587;47891;-72
2022/11/05 08:34:18;;;;;;;;;44.00;35.25;;;;;22.49;61.39;100672.66;146612;576;46020;-73
2022/11/05 08:37:17;;;;;;;;;43.50;35.00;;;;;22.62;61.15;100673.53;146605;699;46016;-73
2022/11/05 08:40:18;;;;;;;;;39.50;33.00;;;;;22.85;60.44;100676.19;146609;606;46021;-73
2022/11/05 08:43:23;;;;;;;;;43.00;34.75;;;;;23.03;59.78;100660.34;146608;700;46012;-72
2022/11/05 08:46:24;;;;;;;;;40.25;33.50;;;;;23.21;59.05;100662.09;146610;570;46021;-72
2022/11/05 08:49:26;;;;;;;;;38.00;31.25;;;;;23.34;56.54;100648.84;146604;583;47014;-71
2022/11/05 08:52:33;;;;;;;;;24.25;23.75;;;;;23.42;50.99;100647.94;146610;580;46020;-72
2022/11/05 08:55:25;;;;;;;;;18.50;15.50;;;;;23.40;46.97;100648.84;146607;631;46014;-72
2022/11/05 08:58:25;;;;;;;;;20.50;18.00;;;;;23.35;49.30;100648.84;146609;576;46025;-72
2022/11/05 09:01:41;;;;;;;;;22.50;21.00;;;;;22.21;50.67;100446.31;146599;704;48923;-72
2022/11/05 09:04:33;;;;;;;;;22.00;19.25;;;;;23.36;51.14;100640.00;146611;566;46010;-72
2022/11/05 09:07:26;;;;;;;;;29.00;27.25;;;;;23.48;54.03;100647.91;146611;570;46015;-72
2022/11/05 09:10:24;;;;;;;;;19.25;17.75;;;;;23.65;52.49;100649.66;146607;605;46021;-72
2022/11/05 09:13:21;;;;;;;;;18.00;16.25;;;;;23.78;47.26;100640.78;146605;584;47916;-72
2022/11/05 09:16:39;;;;;;;;;;;;;;;;;;;;;
2022/11/05 09:19:44;;;;;;;;;16.25;10.50;;;;;23.98;43.62;100627.44;146605;608;46914;-73
2022/11/05 09:22:39;;;;;;;;;11.67;9.67;;;;;23.99;44.75;100626.59;146610;711;46020;-72
2022/11/05 09:25:32;;;;;;;;;15.00;11.33;;;;;23.99;39.80;100618.62;146612;582;46016;-71
2022/11/05 09:28:27;;;;;;;;;13.50;13.50;;;;;23.95;45.83;100617.75;146610;606;46020;-71
2022/11/05 09:31:32;;;;;;;;;10.50;10.50;;;;;23.96;45.48;100608.06;146606;572;46016;-72
2022/11/05 09:34:28;;;;;;;;;11.67;9.67;;;;;24.05;40.47;100601.81;146609;718;47010;-72
2022/11/05 09:37:47;;;;;;;;;11.50;10.25;;;;;22.92;43.12;100394.16;146612;683;46016;-72
2022/11/05 09:41:15;;;;;;;;;13.50;13.50;;;;;24.10;45.84;100590.28;146615;727;46020;-70
2022/11/05 09:44:53;;;;;;;;;20.25;17.50;;;;;24.10;41.11;100598.25;146607;660;46016;-73
2022/11/05 09:48:27;;;;;;;;;17.75;15.50;;;;;23.01;41.62;100417.94;146612;576;46022;-71
2022/11/05 09:51:21;;;;;;;;;17.50;16.50;;;;;24.01;41.35;100584.19;146603;653;47012;-72
2022/11/05 09:54:16;;;;;;;;;14.00;10.75;;;;;24.08;42.60;100584.16;146610;635;46010;-72
2022/11/05 09:57:24;;;;;;;;;13.75;11.00;;;;;24.17;42.29;100578.78;146607;620;47012;-72
2022/11/05 10:00:27;;;;;;;;;7.25;4.75;;;;;23.26;37.43;100406.34;146611;697;46012;-70
2022/11/05 10:03:27;;;;;;;;;17.00;14.00;;;;;24.45;42.75;100573.28;146614;574;46916;-72
2022/11/05 10:06:29;;;;;;;;;20.00;19.75;;;;;24.74;49.50;100578.34;146609;636;46010;-73
2022/11/05 10:10:14;;;;;;;;;16.25;13.75;;;;;24.93;45.97;100564.94;146608;598;46017;-73
2022/11/05 10:13:53;;;;;;;;;22.25;19.50;;;;;25.05;47.65;100578.94;146613;696;46020;-73
2022/11/05 10:16:51;;;;;;;;;13.75;13.75;;;;;25.12;45.28;100571.78;146608;573;45017;-75
2022/11/05 10:19:52;;;;;;;;;19.50;17.25;;;;;25.17;45.75;100562.06;146611;576;46020;-75
2022/11/05 10:22:45;;;;;;;;;18.25;14.50;;;;;25.16;43.97;100557.62;146607;570;47025;-74
2022/11/05 10:25:48;;;;;;;;;12.67;12.33;;;;;25.17;40.91;100550.53;146612;620;46020;-74
2022/11/05 10:28:43;;;;;;;;;12.75;12.00;;;;;25.06;46.43;100526.75;146606;715;46016;-73
2022/11/05 10:31:46;;;;;;;;;16.25;15.25;;;;;25.20;50.97;100531.91;146614;670;46021;-73
2022/11/05 10:34:52;;;;;;;;;11.67;11.33;;;;;25.24;44.07;100525.69;146615;569;46012;-73
2022/11/05 10:37:54;;;;;;;;;10.25;10.00;;;;;25.27;45.83;100518.56;146617;619;46010;-71
2022/11/05 10:41:23;;;;;;;;;11.00;10.67;;;;;25.43;46.05;100518.37;146617;575;46012;-74
2022/11/05 10:45:01;;;;;;;;;9.00;6.33;;;;;24.50;38.24;100332.06;146624;655;46010;-75
2022/11/05 10:48:22;;;;;;;;;9.33;8.00;;;;;25.29;34.56;100519.41;146620;583;47012;-72
2022/11/05 10:51:23;;;;;;;;;8.67;8.67;;;;;25.19;38.45;100509.81;146627;594;46020;-75
2022/11/05 10:54:51;;;;;;;;;;;;;;;;;;;;;
2022/11/05 10:57:46;;;;;;;;;6.00;6.00;;;;;25.02;33.08;100517.97;146629;640;46012;-72
2022/11/05 11:00:40;;;;;;;;;8.00;6.00;;;;;24.00;34.38;100330.84;146622;675;46017;-73
2022/11/05 11:03:53;;;;;;;;;8.67;7.00;;;;;24.92;37.20;100504.78;146626;601;47010;-73
2022/11/05 11:07:15;;;;;;;;;7.33;7.00;;;;;24.88;38.40;100494.22;146619;626;46013;-70
2022/11/05 11:10:37;;;;;;;;;7.00;7.00;;;;;24.98;34.93;100484.37;146621;602;46020;-70
2022/11/05 11:13:33;;;;;;;;;8.00;8.00;;;;;24.93;36.10;100466.78;146621;620;46012;-71
2022/11/05 11:16:36;;;;;;;;;8.33;7.00;;;;;24.78;37.38;100479.31;146624;608;46021;-73
2022/11/05 11:19:42;;;;;;;;;9.00;7.33;;;;;24.85;38.51;100467.72;146620;579;46016;-71
2022/11/05 11:22:39;;;;;;;;;12.00;9.00;;;;;24.91;36.14;100468.56;146628;635;46021;-73
2022/11/05 11:25:53;;;;;;;;;10.00;7.50;;;;;24.94;37.19;100456.16;146622;580;47012;-74
2022/11/05 11:28:55;;;;;;;;;10.33;8.00;;;;;24.91;38.22;100450.00;146624;630;47010;-82
2022/11/05 11:31:49;;;;;;;;;10.25;9.25;;;;;24.94;37.94;100434.06;146619;563;46919;-78
2022/11/05 11:34:44;;;;;;;;;9.00;9.00;;;;;24.95;35.70;100434.03;146612;566;47020;-76
2022/11/05 11:37:42;;;;;;;;;9.33;9.33;;;;;24.98;35.81;100419.84;146611;570;46017;-78
2022/11/05 11:40:41;;;;;;;;;9.33;7.33;;;;;24.79;34.76;100419.19;146612;660;47020;-75
2022/11/05 11:43:43;;;;;;;;;11.67;10.67;;;;;24.58;35.63;100413.28;146611;654;46016;-75
2022/11/05 11:46:39;;;;;;;;;11.33;10.00;;;;;24.34;36.13;100403.75;146609;569;46021;-80
2022/11/05 11:49:51;;;;;;;;;10.00;8.00;;;;;24.11;36.47;100400.44;146606;578;46014;-75
2022/11/05 11:52:50;;;;;;;;;10.50;10.50;;;;;23.94;36.71;100385.59;146604;659;46012;-81
2022/11/05 11:56:02;;;;;;;;;7.67;7.67;;;;;23.79;36.34;100384.84;146604;564;47012;-78
2022/11/05 11:59:06;;;;;;;;;8.00;7.00;;;;;23.74;36.05;100379.63;146619;579;46011;-76
2022/11/05 12:02:40;;;;;;;;;8.00;7.00;;;;;23.87;36.44;100385.69;146712;563;46014;-78
2022/11/05 12:06:09;;;;;;;;;8.75;7.50;;;;;24.17;38.80;100361.56;146622;592;48016;-80
2022/11/05 12:09:56;;;;;;;;;11.67;9.33;;;;;24.55;35.19;100368.25;146630;572;46020;-78
2022/11/05 12:13:42;;;;;;;;;;;;;;;;;;;;;
2022/11/05 12:17:20;;;;;;;;;9.00;8.00;;;;;24.95;35.56;100359.75;146624;602;46020;-81
2022/11/05 12:20:53;;;;;;;;;15.00;12.50;;;;;25.09;38.22;100347.19;146621;589;47016;-80
2022/11/05 12:24:26;;;;;;;;;11.50;9.00;;;;;25.22;35.73;100358.53;146623;641;46010;-79
2022/11/05 12:28:16;;;;;;;;;11.00;8.00;;;;;23.97;34.81;100133.13;146624;648;46016;-81
2022/11/05 12:32:04;;;;;;;;;10.67;9.00;;;;;25.31;35.00;100354.88;146632;564;45022;-75
2022/11/05 12:35:43;;;;;;;;;9.67;9.00;;;;;25.30;33.97;100343.38;146625;591;46016;-73
2022/11/05 12:39:20;;;;;;;;;9.67;9.33;;;;;25.41;34.47;100347.62;146625;593;46020;-76
2022/11/05 12:42:47;;;;;;;;;12.00;10.00;;;;;25.53;36.43;100344.78;146623;585;46014;-83
2022/11/05 12:46:30;;;;;;;;;12.67;10.00;;;;;25.59;34.07;100334.06;146624;674;45021;-78
2022/11/05 12:49:54;;;;;;;;;10.00;9.00;;;;;25.63;37.62;100324.28;146621;611;46016;-78
2022/11/05 12:53:29;;;;;;;;;10.00;9.00;;;;;25.67;33.24;100324.22;146632;616;46010;-72
2022/11/05 12:56:42;;;;;;;;;8.67;8.00;;;;;25.73;33.97;100325.88;146626;657;46016;-74
2022/11/05 13:00:05;;;;;;;;;10.33;7.00;;;;;25.74;33.95;100317.00;146630;563;46010;-73
2022/11/05 13:03:34;;;;;;;;;9.67;9.33;;;;;25.63;35.42;100316.31;146619;581;46016;-77
2022/11/05 13:06:41;;;;;;;;;11.00;9.25;;;;;25.31;37.11;100321.25;146624;643;46020;-76
2022/11/05 13:09:59;;;;;;;;;6.00;6.00;;;;;24.97;36.24;100312.88;146619;606;46017;-72
2022/11/05 13:13:09;;;;;;;;;12.50;10.50;;;;;24.83;38.52;100313.09;146622;624;46020;-74
2022/11/05 13:16:42;;;;;;;;;6.67;6.67;;;;;24.67;38.55;100319.47;146619;637;46016;-73
2022/11/05 13:20:12;;;;;;;;;9.75;9.25;;;;;24.58;39.27;100311.63;146624;565;46010;-74
2022/11/05 13:23:40;;;;;;;;;11.75;10.50;;;;;24.66;39.95;100309.78;146618;599;46914;-75
2022/11/05 13:27:14;;;;;;;;;13.00;12.50;;;;;24.80;39.70;100313.12;146624;711;46014;-74
2022/11/05 13:30:28;;;;;;;;;;;;;;;;;;;;;
2022/11/05 13:33:56;;;;;;;;;18.25;15.00;;;;;24.57;40.64;100297.50;146624;597;46010;-73
2022/11/05 13:40:25;;;;;;;;;14.33;12.33;;;;;24.46;39.06;100298.56;146623;572;46021;-76
2022/11/05 13:43:54;;;;;;;;;11.50;9.75;;;;;24.35;39.81;100288.91;146621;569;46012;-73
2022/11/05 13:47:20;;;;;;;;;13.25;12.00;;;;;24.28;38.71;100296.97;146624;575;46010;-73
2022/11/05 13:50:59;;;;;;;;;9.75;8.00;;;;;24.19;37.82;100279.41;146618;613;46016;-75
2022/11/05 13:54:19;;;;;;;;;7.33;7.33;;;;;24.22;39.00;100289.97;146624;721;46021;-74
2022/11/05 13:58:09;;;;;;;;;9.75;9.00;;;;;24.16;40.90;100276.78;146616;626;46016;-73
2022/11/05 14:01:56;;;;;;;;;11.00;11.00;;;;;24.11;40.48;100289.19;146626;564;46021;-75
2022/11/05 14:04:58;;;;;;;;;12.50;11.75;;;;;24.09;41.02;100285.72;146619;587;46016;-73
2022/11/05 14:08:01;;;;;;;;;;;;;;;;;;;;;
2022/11/05 14:11:23;;;;;;;;;13.67;11.00;;;;;24.27;40.61;100285.50;146616;570;46014;-74
2022/11/05 14:14:33;;;;;;;;;12.50;10.50;;;;;24.37;40.57;100284.50;146622;706;46021;-74
2022/11/05 14:18:29;;;;;;;;;11.50;10.00;;;;;24.40;41.29;100279.16;146618;581;46014;-74
2022/11/05 14:21:51;;;;;;;;;12.00;10.25;;;;;24.36;41.07;100276.53;146621;567;46020;-73
2022/11/05 14:24:49;;;;;;;;;9.67;9.33;;;;;24.33;40.37;100272.19;146618;574;46016;-73
2022/11/05 14:27:58;;;;;;;;;11.00;10.00;;;;;24.33;40.09;100272.19;146629;699;46020;-76
2022/11/05 14:31:03;;;;;;;;;7.67;6.67;;;;;24.34;40.16;100278.34;146622;636;45914;-74
2022/11/05 14:34:43;;;;;;;;;8.00;8.00;;;;;24.33;40.20;100265.97;146631;704;46020;-73
2022/11/05 14:38:01;;;;;;;;;;;;;;;;;;;;;
2022/11/05 14:41:08;;;;;;;;;9.67;9.00;;;;;24.31;40.34;100262.50;146627;582;46020;-76
2022/11/05 14:44:10;;;;;;;;;9.00;8.33;;;;;24.22;40.97;100242.28;146622;575;46016;-74
2022/11/05 14:47:08;;;;;;;;;11.67;8.00;;;;;24.14;40.74;100244.13;146631;601;46010;-76
2022/11/05 14:50:40;;;;;;;;;9.67;7.00;;;;;23.97;40.39;100247.88;146628;578;46012;-73
2022/11/05 14:53:42;;;;;;;;;9.75;8.25;;;;;23.93;40.64;100247.94;146628;671;46010;-75
2022/11/05 14:57:00;;;;;;;;;8.00;8.00;;;;;23.78;40.03;100238.38;146625;660;46913;-74
2022/11/05 15:00:04;;;;;;;;;10.00;7.67;;;;;23.74;41.34;100242.84;146631;575;46011;-76
2022/11/05 15:03:27;;;;;;;;;7.00;7.00;;;;;23.66;40.61;100252.56;146619;565;46012;-74
2022/11/05 15:06:38;;;;;;;;;7.33;7.33;;;;;23.58;41.58;100249.12;146623;607;46021;-74
2022/11/05 15:10:05;;;;;;;;;8.50;8.25;;;;;22.45;41.85;100071.16;146621;606;46016;-74
2022/11/05 15:13:54;;;;;;;;;6.75;6.00;;;;;23.45;41.82;100258.06;146621;635;46010;-75
2022/11/05 15:16:52;;;;;;;;;8.67;8.67;;;;;23.40;41.30;100286.34;146619;720;46014;-74
2022/11/05 15:19:53;;;;;;;;;9.67;7.67;;;;;23.34;41.33;100262.59;146621;695;46020;-75
2022/11/05 15:22:53;;;;;;;;;7.33;7.33;;;;;23.24;41.71;100262.66;146620;684;46014;-76
2022/11/05 15:26:15;;;;;;;;;9.00;7.67;;;;;23.23;41.87;100260.00;146622;563;46020;-74
2022/11/05 15:29:37;;;;;;;;;5.33;5.00;;;;;23.19;41.10;100253.87;146620;620;47014;-75